Lady Nur — 3FFE2 — position and weather

sailwx.info

Track history (hours):
 
Tides and Currents Weather Stations Pressure Air Temp Water Temp Dewpoint Dewpoint Depression Visibility Wind Speed Wind Dir Waves Ship Positions

Lady Nur

Last reported at 2014-Sep-06 19:14 UTC. Time now 2014-Sep-20 10:03 UTC.
Position N 38°01' E 013°47'.
Warning: this ship's position is 13 days out of date.

Length 82 m; draft 4.6 m.

Type: Cargo ship. MMSI: 373237000.

Date/timePositionNaut miles runAvg speedWind from/ knotsBaromVisibWave heightAir tempDewpointWater temp
2014-Sep-06 19:14N 38°01' E 013°47'4 4.5
2014-Sep-06 18:24N 37°59' E 013°43'0 0.0
2014-Sep-06 17:30N 37°59' E 013°43'0 0.0
2014-Sep-05 00:32N 37°59' E 013°43'0 0.0
2014-Sep-04 19:22N 37°59' E 013°43'2 2.5
2014-Sep-04 18:28N 38°00' E 013°45'71 8.9
2014-Sep-04 10:32N 38°18' E 015°12'9 8.7
2014-Sep-04 09:33N 38°19' E 015°23'13 4.4
2014-Sep-04 06:32N 38°12' E 015°37'6 6.3
2014-Sep-04 05:31N 38°05' E 015°36'8 8.4
2014-Sep-04 04:31N 37°57' E 015°35'  
2014-Aug-28 00:04N 40°43' E 027°28'5 8.6
2014-Aug-27 23:31N 40°45' E 027°33'  
Track history (hours):
 
Tides and Currents Weather Stations Pressure Air Temp Water Temp Dewpoint Dewpoint Depression Visibility Wind Speed Wind Dir Waves Ship Positions

Lady Nur

Last reported at 2014-Sep-06 19:14 UTC. Time now 2014-Sep-20 10:03 UTC.
Position N 38°01' E 013°47'.
Warning: this ship's position is 13 days out of date.

Length 82 m; draft 4.6 m.

Type: Cargo ship. MMSI: 373237000.

Date/timePositionNaut miles runAvg speedWind from/ knotsBaromVisibWave heightAir tempDewpointWater temp
2014-Sep-06 19:14N 38°01' E 013°47'4 4.5
2014-Sep-06 18:24N 37°59' E 013°43'0 0.0
2014-Sep-06 17:30N 37°59' E 013°43'0 0.0
2014-Sep-05 00:32N 37°59' E 013°43'0 0.0
2014-Sep-04 19:22N 37°59' E 013°43'2 2.5
2014-Sep-04 18:28N 38°00' E 013°45'71 8.9
2014-Sep-04 10:32N 38°18' E 015°12'9 8.7
2014-Sep-04 09:33N 38°19' E 015°23'13 4.4
2014-Sep-04 06:32N 38°12' E 015°37'6 6.3
2014-Sep-04 05:31N 38°05' E 015°36'8 8.4
2014-Sep-04 04:31N 37°57' E 015°35'  
2014-Aug-28 00:04N 40°43' E 027°28'5 8.6
2014-Aug-27 23:31N 40°45' E 027°33'  

Dump ship's entire track history